Time;durP1;ratioP1;P1;durP2;ratioP2;P2;SDS_P1;SDS_P2;PMS_P1;PMS_P2;Temp;Humidity;BMP_temperature;BMP_pressure;BME280_temperature;BME280_humidity;BME280_pressure;Samples;Min_cycle;Max_cycle;Signal;HPM_P1;HPM_P2
2021/06/28 00:01:38;;;;;;;4.97;4.57;;;17.90;99.90;;;;;;5070879;28;20188;-80
2021/06/28 00:04:04;;;;;;;5.73;5.23;;;17.90;99.90;;;;;;5072540;28;20184;-80
2021/06/28 00:06:30;;;;;;;5.30;4.93;;;17.90;99.90;;;;;;5069854;28;20261;-81
2021/06/28 00:08:56;;;;;;;5.40;5.00;;;17.90;99.90;;;;;;5074094;28;20173;-81
2021/06/28 00:11:22;;;;;;;5.83;5.37;;;17.90;99.90;;;;;;5069406;28;20306;-81
2021/06/28 00:13:49;;;;;;;5.10;4.80;;;17.90;99.90;;;;;;5084664;28;20783;-81
2021/06/28 00:16:16;;;;;;;5.13;4.80;;;17.90;99.90;;;;;;5070163;28;20506;-81
2021/06/28 00:18:43;;;;;;;5.63;5.23;;;17.90;99.90;;;;;;5074151;28;20759;-81
2021/06/28 00:21:09;;;;;;;5.20;4.80;;;17.90;99.90;;;;;;5072364;28;20589;-81
2021/06/28 00:23:35;;;;;;;6.90;6.30;;;18.00;99.90;;;;;;5072675;28;20434;-81
2021/06/28 00:26:02;;;;;;;5.80;5.33;;;18.00;99.90;;;;;;5090796;28;20931;-81
2021/06/28 00:28:28;;;;;;;5.77;5.27;;;18.00;99.90;;;;;;5075853;28;20441;-81
2021/06/28 00:30:55;;;;;;;7.13;5.63;;;18.00;99.90;;;;;;5070720;28;20421;-81
2021/06/28 00:33:21;;;;;;;6.53;5.97;;;17.90;99.90;;;;;;5069636;28;20242;-81
2021/06/28 00:35:48;;;;;;;5.37;4.87;;;17.90;99.90;;;;;;5087765;28;20477;-81
2021/06/28 00:38:15;;;;;;;5.97;5.53;;;17.90;99.90;;;;;;5072820;28;20427;-80
2021/06/28 00:40:43;;;;;;;6.00;5.40;;;17.80;99.90;;;;;;5073028;28;20500;-81
2021/06/28 00:43:09;;;;;;;5.73;5.20;;;17.80;99.90;;;;;;5071552;28;20419;-80
2021/06/28 00:45:41;;;;;;;6.00;5.50;;;17.80;99.90;;;;;;5069179;28;20947;-80
2021/06/28 00:48:16;;;;;;;7.63;4.80;;;17.70;99.90;;;;;;5066477;28;20414;-80
2021/06/28 00:50:44;;;;;;;4.60;4.30;;;17.60;99.90;;;;;;5071196;28;20502;-80
2021/06/28 00:53:12;;;;;;;5.40;4.90;;;17.50;99.90;;;;;;5070387;28;20421;-81
2021/06/28 00:55:40;;;;;;;5.20;4.90;;;17.50;99.90;;;;;;5072653;28;20459;-80
2021/06/28 00:58:06;;;;;;;5.50;5.07;;;17.50;99.90;;;;;;5071224;28;20422;-80
2021/06/28 01:00:32;;;;;;;5.67;5.20;;;17.50;99.90;;;;;;5068384;28;20468;-80
2021/06/28 01:02:58;;;;;;;6.33;5.73;;;17.50;99.90;;;;;;5063036;28;20181;-80
2021/06/28 01:05:30;;;;;;;5.50;5.03;;;17.50;99.90;;;;;;5063734;28;20242;-81
2021/06/28 01:07:56;;;;;;;6.57;5.87;;;17.60;99.90;;;;;;5070668;28;20423;-80
2021/06/28 01:10:22;;;;;;;5.90;5.50;;;17.60;99.90;;;;;;5073017;28;20457;-80
2021/06/28 01:12:50;;;;;;;7.00;6.50;;;17.60;99.90;;;;;;5071808;28;20285;-80
2021/06/28 01:15:17;;;;;;;5.60;5.20;;;17.60;99.90;;;;;;5071189;28;20476;-80
2021/06/28 01:17:43;;;;;;;6.33;5.73;;;17.50;99.90;;;;;;5072134;28;20437;-80
2021/06/28 01:20:12;;;;;;;6.20;5.60;;;17.50;99.90;;;;;;5068041;28;20522;-80
2021/06/28 01:22:40;;;;;;;5.77;5.27;;;17.50;99.90;;;;;;5070026;28;20876;-80
2021/06/28 01:25:09;;;;;;;5.10;4.70;;;17.50;99.90;;;;;;5069797;28;20441;-80
2021/06/28 01:27:35;;;;;;;5.40;5.00;;;17.50;99.90;;;;;;5072671;28;20434;-80
2021/06/28 01:30:03;;;;;;;6.13;5.53;;;17.50;99.90;;;;;;5072381;28;20438;-80
2021/06/28 01:32:28;;;;;;;6.07;5.57;;;17.50;99.90;;;;;;5072595;28;23088;-80
2021/06/28 01:34:54;;;;;;;5.60;5.10;;;17.50;99.90;;;;;;5069935;28;20474;-80
2021/06/28 01:37:25;;;;;;;5.83;5.33;;;17.40;99.90;;;;;;5072213;28;20185;-80
2021/06/28 01:39:54;;;;;;;6.17;5.67;;;17.40;99.90;;;;;;5068856;28;20169;-80
2021/06/28 01:42:21;;;;;;;6.80;5.93;;;17.40;99.90;;;;;;5073619;28;20488;-81
2021/06/28 01:44:46;;;;;;;6.40;5.37;;;17.40;99.90;;;;;;5071559;28;20806;-80
2021/06/28 01:47:12;;;;;;;6.43;5.73;;;17.40;99.90;;;;;;5067769;28;20454;-81
2021/06/28 01:49:38;;;;;;;5.33;4.93;;;17.40;99.90;;;;;;5071851;28;20238;-81
2021/06/28 01:52:04;;;;;;;6.27;5.70;;;17.40;99.90;;;;;;5068955;28;20184;-80
2021/06/28 01:54:30;;;;;;;6.80;6.13;;;17.40;99.90;;;;;;5069551;28;20169;-81
2021/06/28 01:56:57;;;;;;;7.60;6.90;;;17.40;99.90;;;;;;5070551;28;20438;-80
2021/06/28 01:59:29;;;;;;;5.90;5.40;;;17.40;99.90;;;;;;5070387;28;20434;-81
2021/06/28 02:01:55;;;;;;;6.50;6.00;;;17.40;99.90;;;;;;5070135;28;20481;-80
2021/06/28 02:04:21;;;;;;;6.90;6.30;;;17.40;99.90;;;;;;5069865;28;20449;-80
2021/06/28 02:06:48;;;;;;;7.60;6.90;;;17.40;99.90;;;;;;5068105;28;20450;-80
2021/06/28 02:09:14;;;;;;;7.57;6.53;;;17.30;99.90;;;;;;5069202;28;20422;-80
2021/06/28 02:11:40;;;;;;;6.90;6.30;;;17.20;99.90;;;;;;5070000;28;20430;-80
2021/06/28 02:14:06;;;;;;;8.57;7.77;;;17.20;99.90;;;;;;5070768;28;20419;-80
2021/06/28 02:16:32;;;;;;;7.73;6.77;;;17.20;99.90;;;;;;5069584;28;20195;-80
2021/06/28 02:18:57;;;;;;;7.40;6.70;;;17.30;99.90;;;;;;5085431;28;20499;-80
2021/06/28 02:21:23;;;;;;;7.10;6.50;;;17.30;99.90;;;;;;5070489;28;20181;-80
2021/06/28 02:23:49;;;;;;;8.33;7.43;;;17.30;99.90;;;;;;5069400;28;20185;-80
2021/06/28 02:26:15;;;;;;;7.60;6.83;;;17.30;99.90;;;;;;5071503;28;20455;-80
2021/06/28 02:28:48;;;;;;;6.90;6.30;;;17.30;99.90;;;;;;5070974;28;20204;-80
2021/06/28 02:31:17;;;;;;;7.90;7.20;;;17.40;99.90;;;;;;5069320;28;20179;-80
2021/06/28 02:33:44;;;;;;;7.80;7.00;;;17.40;99.90;;;;;;5061940;28;20904;-81
2021/06/28 02:36:10;;;;;;;8.53;7.30;;;17.40;99.90;;;;;;5069620;28;20431;-80
2021/06/28 02:38:36;;;;;;;8.40;7.60;;;17.40;99.90;;;;;;5071246;28;20831;-80
2021/06/28 02:41:04;;;;;;;7.40;6.70;;;17.50;99.90;;;;;;5071005;28;20463;-80
2021/06/28 02:43:30;;;;;;;8.20;7.50;;;17.50;99.90;;;;;;5069152;28;20427;-80
2021/06/28 02:45:56;;;;;;;8.27;7.47;;;17.50;99.90;;;;;;5084489;28;20860;-80
2021/06/28 02:48:22;;;;;;;7.80;7.00;;;17.50;99.90;;;;;;5068745;28;20427;-80
2021/06/28 02:50:48;;;;;;;8.10;7.40;;;17.50;99.90;;;;;;5083762;28;20461;-80
2021/06/28 02:53:16;;;;;;;7.00;6.30;;;17.50;99.90;;;;;;5067308;28;20285;-80
2021/06/28 02:55:46;;;;;;;7.77;7.00;;;17.50;99.90;;;;;;5069647;28;20514;-80
2021/06/28 02:58:12;;;;;;;7.03;6.33;;;17.50;99.90;;;;;;5071613;28;20926;-80
2021/06/28 03:00:38;;;;;;;8.43;7.60;;;17.50;99.90;;;;;;5067983;28;20431;-80
2021/06/28 03:03:04;;;;;;;8.70;7.90;;;17.50;99.90;;;;;;5065158;28;20426;-80
2021/06/28 03:05:30;;;;;;;9.30;8.37;;;17.50;99.90;;;;;;5084326;28;20213;-80
2021/06/28 03:07:56;;;;;;;9.73;8.80;;;17.60;99.90;;;;;;5067580;28;20950;-80
2021/06/28 03:10:22;;;;;;;9.57;8.67;;;17.50;99.90;;;;;;5070603;28;20180;-80
2021/06/28 03:12:47;;;;;;;9.60;7.53;;;17.50;99.90;;;;;;5068515;28;20677;-80
2021/06/28 03:15:16;;;;;;;10.63;8.13;;;17.60;99.90;;;;;;5069306;28;20176;-80
2021/06/28 03:17:42;;;;;;;7.53;6.83;;;17.60;99.90;;;;;;5063224;28;20168;-80
2021/06/28 03:20:11;;;;;;;9.37;8.47;;;17.60;99.90;;;;;;5069882;28;20541;-80
2021/06/28 03:22:40;;;;;;;9.23;8.07;;;17.70;99.90;;;;;;5069376;28;20464;-80
2021/06/28 03:25:08;;;;;;;7.90;7.10;;;17.70;99.90;;;;;;5069338;28;20431;-80
2021/06/28 03:27:34;;;;;;;9.73;8.73;;;17.70;99.90;;;;;;5068171;28;20458;-80
2021/06/28 03:30:00;;;;;;;8.03;7.33;;;17.80;99.90;;;;;;5087565;28;20433;-80
2021/06/28 03:32:26;;;;;;;7.40;6.70;;;17.80;99.90;;;;;;5069181;28;20567;-80
2021/06/28 03:34:52;;;;;;;7.90;7.10;;;17.80;99.90;;;;;;5069414;28;20185;-80
2021/06/28 03:37:18;;;;;;;9.53;8.53;;;17.90;99.90;;;;;;5068149;28;20847;-80
2021/06/28 03:39:44;;;;;;;7.80;7.00;;;17.90;99.90;;;;;;5084551;28;20573;-80
2021/06/28 03:42:10;;;;;;;10.77;8.40;;;17.90;99.90;;;;;;5069792;28;20176;-80
2021/06/28 03:44:35;;;;;;;8.23;7.40;;;17.80;99.90;;;;;;5068772;28;20533;-80
2021/06/28 03:47:01;;;;;;;7.60;6.90;;;17.80;99.90;;;;;;5069673;28;20203;-80
2021/06/28 03:49:27;;;;;;;8.40;7.57;;;17.80;99.90;;;;;;5068838;28;20265;-79
2021/06/28 03:51:54;;;;;;;12.80;8.43;;;17.90;99.90;;;;;;5069349;28;20180;-80
2021/06/28 03:54:20;;;;;;;8.33;7.60;;;17.90;99.90;;;;;;5071191;28;20180;-80
2021/06/28 03:56:45;;;;;;;7.13;6.43;;;18.00;99.90;;;;;;5066740;28;20427;-80
2021/06/28 03:59:11;;;;;;;10.33;8.97;;;18.00;99.90;;;;;;5071114;28;20954;-80
2021/06/28 04:01:37;;;;;;;7.97;7.23;;;18.00;99.90;;;;;;5065609;28;20210;-80
2021/06/28 04:04:02;;;;;;;8.30;7.10;;;18.00;99.90;;;;;;5066784;28;20181;-80
2021/06/28 04:06:28;;;;;;;8.40;7.60;;;18.00;99.90;;;;;;5065743;28;20283;-80
2021/06/28 04:08:54;;;;;;;11.43;7.80;;;18.10;99.90;;;;;;5077499;28;20625;-80
2021/06/28 04:11:19;;;;;;;9.80;8.77;;;18.10;99.90;;;;;;5069622;28;20180;-80
2021/06/28 04:13:46;;;;;;;8.73;7.83;;;18.10;99.90;;;;;;5073558;28;20168;-80
2021/06/28 04:16:12;;;;;;;11.30;10.20;;;18.10;99.90;;;;;;5072023;28;20233;-80
2021/06/28 04:18:38;;;;;;;10.07;8.37;;;18.10;99.90;;;;;;5072113;28;20427;-80
2021/06/28 04:21:05;;;;;;;8.27;7.53;;;18.10;99.90;;;;;;5071367;28;20429;-80
2021/06/28 04:23:30;;;;;;;11.87;8.93;;;18.10;99.90;;;;;;5072790;28;20184;-80
2021/06/28 04:25:56;;;;;;;23.23;10.53;;;18.10;99.90;;;;;;5072446;28;20468;-80
2021/06/28 04:28:22;;;;;;;9.93;7.90;;;18.10;99.90;;;;;;5072524;28;20195;-80
2021/06/28 04:30:48;;;;;;;9.53;8.63;;;18.10;99.90;;;;;;5069398;28;20181;-80
2021/06/28 04:33:14;;;;;;;12.40;9.07;;;18.20;99.90;;;;;;5070741;28;20621;-80
2021/06/28 04:35:39;;;;;;;10.27;9.17;;;18.20;99.90;;;;;;5083484;28;20176;-80
2021/06/28 04:38:05;;;;;;;10.73;9.50;;;18.20;99.90;;;;;;5071680;28;20180;-80
2021/06/28 04:40:31;;;;;;;9.37;8.50;;;18.20;99.90;;;;;;5069062;28;20172;-80
2021/06/28 04:42:58;;;;;;;11.40;10.30;;;18.10;99.90;;;;;;5089971;28;20697;-80
2021/06/28 04:45:25;;;;;;;11.70;9.90;;;18.20;99.90;;;;;;5066807;28;20437;-80
2021/06/28 04:47:51;;;;;;;9.33;8.40;;;18.20;99.90;;;;;;5069520;28;20463;-80
2021/06/28 04:50:21;;;;;;;9.37;7.97;;;18.20;99.90;;;;;;5068203;28;20456;-80
2021/06/28 04:52:46;;;;;;;10.47;9.57;;;18.30;99.90;;;;;;5068559;28;21237;-80
2021/06/28 04:55:14;;;;;;;8.67;7.87;;;18.40;99.90;;;;;;5067771;28;20438;-80
2021/06/28 04:57:40;;;;;;;9.93;8.33;;;18.40;99.90;;;;;;5071388;28;20238;-80
2021/06/28 05:00:09;;;;;;;10.77;9.67;;;18.40;99.90;;;;;;5066629;28;20423;-80
2021/06/28 05:02:34;;;;;;;10.70;9.07;;;18.50;99.90;;;;;;5063372;28;20924;-80
2021/06/28 05:05:00;;;;;;;9.93;9.03;;;18.60;99.90;;;;;;5067894;28;20432;-80
2021/06/28 05:07:26;;;;;;;10.80;9.13;;;18.60;99.90;;;;;;5069807;28;20192;-80
2021/06/28 05:09:51;;;;;;;9.13;8.00;;;18.60;99.90;;;;;;5068786;28;20181;-80
2021/06/28 05:12:17;;;;;;;9.40;8.50;;;18.70;99.90;;;;;;5072454;28;20207;-80
2021/06/28 05:14:44;;;;;;;8.83;7.93;;;18.70;99.90;;;;;;5072686;28;20255;-80
2021/06/28 05:17:10;;;;;;;8.73;7.90;;;18.80;99.90;;;;;;5068628;28;20165;-80
2021/06/28 05:19:36;;;;;;;8.97;7.73;;;18.90;99.90;;;;;;5071389;28;20475;-80
2021/06/28 05:22:03;;;;;;;8.73;7.83;;;19.00;99.90;;;;;;5066599;28;20423;-80
2021/06/28 05:24:28;;;;;;;9.57;8.67;;;19.00;99.90;;;;;;5070885;28;20438;-80
2021/06/28 05:26:54;;;;;;;10.83;8.50;;;19.10;99.90;;;;;;5071643;28;20515;-80
2021/06/28 05:29:20;;;;;;;9.37;7.60;;;19.10;99.90;;;;;;5071212;28;20173;-80
2021/06/28 05:31:45;;;;;;;8.90;8.03;;;19.10;99.90;;;;;;5070776;28;20176;-80
2021/06/28 05:34:11;;;;;;;7.27;6.67;;;19.20;99.90;;;;;;5069697;28;20215;-80
2021/06/28 05:36:37;;;;;;;7.87;7.17;;;19.30;99.90;;;;;;5069533;28;20625;-80
2021/06/28 05:39:04;;;;;;;9.43;7.93;;;19.40;99.90;;;;;;5063483;28;20294;-80
2021/06/28 05:41:30;;;;;;;7.03;6.43;;;19.40;99.90;;;;;;5068683;28;20185;-80
2021/06/28 05:43:56;;;;;;;10.07;8.00;;;19.50;99.90;;;;;;5064761;28;20488;-80
2021/06/28 05:46:22;;;;;;;8.77;6.50;;;19.60;99.90;;;;;;5085041;28;20196;-80
2021/06/28 05:48:48;;;;;;;9.40;7.00;;;19.60;99.90;;;;;;5072350;28;20180;-80
2021/06/28 05:51:17;;;;;;;8.27;7.47;;;19.70;99.90;;;;;;5068068;28;20589;-80
2021/06/28 05:53:43;;;;;;;8.27;7.50;;;19.70;99.90;;;;;;5071397;28;20434;-80
2021/06/28 05:56:09;;;;;;;8.80;8.00;;;19.70;99.90;;;;;;5069242;28;20430;-80
2021/06/28 05:58:35;;;;;;;9.10;8.30;;;19.70;99.90;;;;;;5068028;28;20433;-80
2021/06/28 06:01:02;;;;;;;7.80;7.00;;;19.60;99.90;;;;;;5065208;28;20435;-80
2021/06/28 06:03:28;;;;;;;9.50;8.50;;;19.60;99.90;;;;;;5067740;28;20438;-80
2021/06/28 06:05:54;;;;;;;6.80;6.27;;;19.50;99.90;;;;;;5064676;28;20473;-80
2021/06/28 06:08:24;;;;;;;7.23;6.53;;;19.60;99.90;;;;;;5067170;28;20177;-80
2021/06/28 06:10:54;;;;;;;8.77;8.00;;;19.60;99.90;;;;;;5069009;28;20181;-80
2021/06/28 06:13:20;;;;;;;7.97;7.23;;;19.60;99.90;;;;;;5069676;28;20431;-80
2021/06/28 06:15:47;;;;;;;7.27;6.47;;;19.60;99.90;;;;;;5070315;28;20454;-80
2021/06/28 06:18:13;;;;;;;7.63;6.90;;;19.70;99.90;;;;;;5069945;28;20422;-80
2021/06/28 06:20:39;;;;;;;7.50;6.80;;;19.80;99.90;;;;;;5068347;28;20434;-80
2021/06/28 06:23:05;;;;;;;7.13;6.43;;;19.80;99.90;;;;;;5061447;28;20434;-80
2021/06/28 06:25:31;;;;;;;7.00;6.40;;;19.90;99.90;;;;;;5065427;28;20426;-80
2021/06/28 06:27:57;;;;;;;9.17;7.90;;;20.00;99.90;;;;;;5065968;28;20267;-80
2021/06/28 06:30:22;;;;;;;7.03;6.53;;;20.10;99.90;;;;;;5067420;28;20470;-80
2021/06/28 06:32:49;;;;;;;6.57;5.97;;;20.20;99.90;;;;;;5067445;28;20186;-81
2021/06/28 06:35:16;;;;;;;7.57;6.87;;;20.30;99.90;;;;;;5067258;28;20185;-81
2021/06/28 06:37:42;;;;;;;6.80;6.20;;;20.50;99.90;;;;;;5065394;28;20435;-80
2021/06/28 06:40:08;;;;;;;8.63;7.53;;;20.60;99.90;;;;;;5064752;28;20926;-80
2021/06/28 06:42:34;;;;;;;8.90;7.53;;;20.70;99.90;;;;;;5078874;28;20219;-80
2021/06/28 06:45:00;;;;;;;6.27;5.77;;;20.70;99.90;;;;;;5064993;28;20431;-80
2021/06/28 06:47:26;;;;;;;9.00;7.43;;;20.90;99.90;;;;;;5064745;28;20461;-80
2021/06/28 06:49:52;;;;;;;5.37;5.03;;;21.00;99.90;;;;;;5066772;28;20169;-80
2021/06/28 06:52:17;;;;;;;7.03;6.43;;;21.10;99.90;;;;;;5068983;28;20175;-80
2021/06/28 06:54:44;;;;;;;6.97;6.37;;;21.10;99.90;;;;;;5083366;28;20207;-80
2021/06/28 06:57:10;;;;;;;6.47;5.87;;;21.30;99.90;;;;;;5068422;28;20664;-80
2021/06/28 06:59:37;;;;;;;6.27;5.67;;;21.40;99.90;;;;;;5068153;28;20473;-80
2021/06/28 07:02:04;;;;;;;6.27;5.77;;;21.40;99.90;;;;;;5063035;28;20431;-81
2021/06/28 07:04:29;;;;;;;7.03;6.23;;;21.50;99.90;;;;;;5067154;28;20431;-81
2021/06/28 07:06:55;;;;;;;6.87;6.27;;;21.50;99.90;;;;;;5066247;28;20591;-81
2021/06/28 07:09:21;;;;;;;6.50;5.90;;;21.60;99.90;;;;;;5069436;28;20260;-80
2021/06/28 07:11:46;;;;;;;10.37;5.50;;;21.70;99.90;;;;;;5067616;28;20176;-80
2021/06/28 07:14:12;;;;;;;7.10;6.40;;;21.80;99.90;;;;;;5066166;28;20177;-80
2021/06/28 07:16:38;;;;;;;5.73;5.23;;;21.90;99.90;;;;;;5067645;28;20176;-81
2021/06/28 07:19:05;;;;;;;6.97;6.27;;;22.00;99.90;;;;;;5067382;28;20510;-80
2021/06/28 07:21:34;;;;;;;6.07;5.57;;;22.10;99.90;;;;;;5062619;28;20177;-80
2021/06/28 07:23:59;;;;;;;7.40;6.80;;;22.30;99.90;;;;;;5065929;28;20439;-81
2021/06/28 07:26:25;;;;;;;7.67;6.70;;;22.40;99.90;;;;;;5067066;28;20954;-81
2021/06/28 07:28:54;;;;;;;6.23;5.73;;;22.60;99.90;;;;;;5065892;28;20597;-80
2021/06/28 07:31:21;;;;;;;6.23;5.73;;;22.70;99.90;;;;;;5067471;28;20238;-81
2021/06/28 07:33:47;;;;;;;6.63;6.03;;;22.90;99.90;;;;;;5064667;28;20461;-81
2021/06/28 07:36:13;;;;;;;6.10;5.70;;;23.00;99.90;;;;;;5067399;28;20897;-81
2021/06/28 07:38:39;;;;;;;6.13;5.60;;;23.10;99.90;;;;;;5066796;28;20181;-81
2021/06/28 07:41:05;;;;;;;6.20;5.80;;;23.30;99.90;;;;;;5069648;28;20195;-80
2021/06/28 07:43:32;;;;;;;6.63;6.23;;;23.40;99.90;;;;;;5066600;28;21567;-80
2021/06/28 07:45:58;;;;;;;6.40;6.00;;;23.40;99.90;;;;;;5065413;28;20559;-81
2021/06/28 07:48:24;;;;;;;7.07;6.47;;;23.50;99.90;;;;;;5067729;28;20418;-80
2021/06/28 07:50:50;;;;;;;6.73;6.23;;;23.50;99.90;;;;;;5087638;28;20173;-80
2021/06/28 07:53:16;;;;;;;5.83;5.33;;;23.60;99.90;;;;;;5071834;28;20188;-81
2021/06/28 07:55:44;;;;;;;6.63;6.00;;;23.60;99.90;;;;;;5071760;28;20263;-80
2021/06/28 07:58:10;;;;;;;5.57;5.17;;;23.70;99.90;;;;;;5071037;28;20443;-81
2021/06/28 08:00:36;;;;;;;6.83;6.03;;;23.70;99.90;;;;;;5066915;28;20415;-80
2021/06/28 08:03:05;;;;;;;6.60;6.10;;;23.80;99.90;;;;;;5069327;28;20433;-81
2021/06/28 08:05:30;;;;;;;6.67;6.17;;;23.90;99.90;;;;;;5069548;28;20492;-81
2021/06/28 08:07:56;;;;;;;7.20;6.60;;;24.00;99.90;;;;;;5071420;28;20813;-81
2021/06/28 08:10:22;;;;;;;6.90;6.20;;;23.90;99.90;;;;;;5071651;28;20185;-80
2021/06/28 08:12:49;;;;;;;6.57;6.13;;;24.00;99.90;;;;;;5071526;28;20180;-81
2021/06/28 08:15:17;;;;;;;5.90;5.50;;;24.00;99.90;;;;;;5068781;28;20518;-81
2021/06/28 08:17:43;;;;;;;6.47;5.97;;;24.10;99.90;;;;;;5087646;28;20511;-81
2021/06/28 08:20:10;;;;;;;5.63;5.23;;;24.10;99.90;;;;;;5071993;28;20902;-81
2021/06/28 08:22:36;;;;;;;5.40;5.00;;;24.30;99.90;;;;;;5069714;28;20434;-81
2021/06/28 08:25:04;;;;;;;6.47;5.97;;;24.30;99.90;;;;;;5068775;28;20489;-81
2021/06/28 08:27:30;;;;;;;6.00;5.50;;;24.20;99.90;;;;;;5068805;28;20531;-81
2021/06/28 08:29:55;;;;;;;6.00;5.60;;;24.20;99.90;;;;;;5062586;28;20896;-81
2021/06/28 08:32:21;;;;;;;6.07;5.53;;;24.10;99.90;;;;;;5067278;28;20548;-80
2021/06/28 08:34:47;;;;;;;4.80;4.50;;;24.10;99.90;;;;;;5080006;28;20197;-80
2021/06/28 08:37:13;;;;;;;5.30;5.00;;;24.20;99.90;;;;;;5061473;28;20195;-80
2021/06/28 08:39:38;;;;;;;5.60;5.20;;;24.30;99.90;;;;;;5067331;28;20258;-80
2021/06/28 08:42:07;;;;;;;6.03;5.63;;;24.40;99.90;;;;;;5067496;28;20188;-80
2021/06/28 08:44:34;;;;;;;5.27;4.90;;;24.60;99.90;;;;;;5068033;28;20177;-80
2021/06/28 08:47:00;;;;;;;5.70;5.27;;;24.70;99.90;;;;;;5069801;28;21080;-80
2021/06/28 08:49:26;;;;;;;4.87;4.57;;;24.80;99.90;;;;;;5070161;28;20437;-81
2021/06/28 08:51:52;;;;;;;5.30;4.80;;;25.00;99.90;;;;;;5069034;28;20184;-80
2021/06/28 08:54:18;;;;;;;5.30;4.90;;;25.20;99.90;;;;;;5063169;28;20774;-81
2021/06/28 08:56:45;;;;;;;6.13;5.73;;;25.30;99.90;;;;;;5068100;28;20633;-80
2021/06/28 08:59:12;;;;;;;5.00;4.60;;;25.40;99.90;;;;;;5071054;28;20602;-80
2021/06/28 09:01:39;;;;;;;5.80;5.17;;;25.40;99.90;;;;;;5085875;28;20763;-80
2021/06/28 09:04:07;;;;;;;6.50;5.77;;;25.50;99.90;;;;;;5071643;28;20426;-80
2021/06/28 09:06:33;;;;;;;5.07;4.67;;;25.50;99.90;;;;;;5068864;28;20462;-80
2021/06/28 09:09:02;;;;;;;7.50;5.30;;;25.50;99.90;;;;;;5066419;28;20464;-81
2021/06/28 09:11:29;;;;;;;5.07;4.77;;;25.40;99.90;;;;;;5063365;28;20474;-81
2021/06/28 09:13:56;;;;;;;5.83;5.40;;;25.50;99.90;;;;;;5067740;28;20507;-81
2021/06/28 09:16:24;;;;;;;5.93;5.43;;;25.50;99.90;;;;;;5069219;28;20484;-80
2021/06/28 09:19:01;;;;;;;5.83;5.43;;;25.50;99.90;;;;;;5061307;28;20490;-80
2021/06/28 09:21:39;;;;;;;5.53;5.13;;;25.60;99.90;;;;;;5062124;28;20418;-79
2021/06/28 09:24:21;;;;;;;4.40;4.20;;;25.60;99.90;;;;;;5066685;28;20446;-80
2021/06/28 09:26:47;;;;;;;5.40;5.10;;;25.60;99.90;;;;;;5069314;28;20499;-80
2021/06/28 09:29:13;;;;;;;5.27;4.90;;;25.80;99.90;;;;;;5068576;28;20430;-80
2021/06/28 09:31:39;;;;;;;5.80;5.40;;;25.70;99.90;;;;;;5063863;28;20172;-80
2021/06/28 09:34:09;;;;;;;5.20;4.90;;;25.80;99.90;;;;;;5069170;28;20189;-80
2021/06/28 09:36:56;;;;;;;5.33;4.90;;;25.90;99.90;;;;;;5071218;28;20192;-80
2021/06/28 09:39:29;;;;;;;4.90;4.60;;;25.90;99.90;;;;;;5065001;28;20426;-80
2021/06/28 09:42:08;;;;;;;6.17;4.60;;;26.00;99.90;;;;;;5066474;28;20439;-80
2021/06/28 09:44:37;;;;;;;5.20;4.87;;;26.10;99.90;;;;;;5069213;28;20460;-80
2021/06/28 09:47:24;;;;;;;5.53;5.03;;;26.20;99.90;;;;;;5072013;28;21026;-80
2021/06/28 09:50:10;;;;;;;4.83;4.50;;;26.40;99.90;;;;;;5070680;28;20429;-80
2021/06/28 09:52:46;;;;;;;4.67;4.37;;;26.60;99.90;;;;;;5085647;28;20422;-79
2021/06/28 09:55:24;;;;;;;4.83;4.10;;;26.80;99.90;;;;;;5073420;28;20406;-80
2021/06/28 09:58:21;;;;;;;4.83;4.40;;;26.90;99.90;;;;;;5065225;28;20499;-80
2021/06/28 10:00:51;;;;;;;5.30;4.80;;;27.10;99.90;;;;;;5064413;28;20729;-80
2021/06/28 10:03:29;;;;;;;3.97;3.77;;;27.30;99.90;;;;;;5068500;28;20772;-80
2021/06/28 10:08:33;;;;;;;4.73;4.43;;;27.60;99.90;;;;;;5071935;28;20468;-80
2021/06/28 10:11:19;;;;;;;4.87;4.47;;;27.60;99.90;;;;;;5093846;28;20419;-79
2021/06/28 10:14:06;;;;;;;4.13;3.83;;;27.90;99.90;;;;;;5081738;28;20434;-80
2021/06/28 10:16:38;;;;;;;4.83;4.50;;;28.10;99.90;;;;;;5086728;28;20457;-80
2021/06/28 10:19:06;;;;;;;4.00;3.77;;;28.20;99.90;;;;;;5085016;28;20419;-80
2021/06/28 10:21:34;;;;;;;4.00;3.70;;;28.30;99.90;;;;;;5064773;28;20453;-80
2021/06/28 10:24:00;;;;;;;5.87;4.80;;;28.10;99.90;;;;;;5069642;28;21140;-80
2021/06/28 10:26:26;;;;;;;4.77;4.20;;;28.20;99.90;;;;;;5085373;28;20541;-80
2021/06/28 10:28:54;;;;;;;5.50;3.53;;;28.30;99.90;;;;;;5068772;28;20180;-79
2021/06/28 10:31:20;;;;;;;3.80;3.50;;;28.60;99.90;;;;;;5085853;28;20445;-80
2021/06/28 10:33:58;;;;;;;12.10;4.00;;;28.60;99.90;;;;;;5070108;28;20439;-79
2021/06/28 10:36:36;;;;;;;5.27;4.80;;;28.70;99.90;;;;;;5069864;28;20426;-80
2021/06/28 10:39:07;;;;;;;4.13;3.93;;;28.70;99.90;;;;;;5069134;28;20430;-80
2021/06/28 10:41:46;;;;;;;5.70;3.50;;;28.80;99.90;;;;;;5068833;28;20453;-80
2021/06/28 10:44:14;;;;;;;6.73;3.87;;;29.00;99.90;;;;;;5067042;28;20741;-80
2021/06/28 10:46:49;;;;;;;11.67;6.57;;;29.10;99.90;;;;;;5069842;28;20510;-80
2021/06/28 10:49:16;;;;;;;4.50;4.20;;;29.00;99.90;;;;;;5069602;28;20471;-80
2021/06/28 10:51:49;;;;;;;3.50;3.23;;;29.00;99.90;;;;;;5068433;28;20826;-80
2021/06/28 10:54:16;;;;;;;7.70;3.73;;;28.90;99.90;;;;;;5086173;28;20500;-80
2021/06/28 10:56:44;;;;;;;4.10;3.80;;;28.90;99.90;;;;;;5063421;28;21061;-81
2021/06/28 10:59:17;;;;;;;4.53;4.23;;;28.80;99.90;;;;;;5067739;28;20897;-80
2021/06/28 11:01:44;;;;;;;4.23;3.97;;;28.60;99.90;;;;;;5066067;28;20510;-80
2021/06/28 11:04:30;;;;;;;3.67;3.50;;;28.50;99.90;;;;;;5063723;28;20434;-80
2021/06/28 11:06:58;;;;;;;4.03;3.70;;;28.70;99.90;;;;;;5069443;28;20457;-80
2021/06/28 11:09:51;;;;;;;4.70;4.40;;;28.90;99.90;;;;;;5065435;28;20430;-80
2021/06/28 11:12:29;;;;;;;4.70;4.03;;;29.30;99.90;;;;;;5063182;28;20431;-81
2021/06/28 11:14:59;;;;;;;5.27;4.67;;;29.60;99.90;;;;;;5064494;28;20419;-80
2021/06/28 11:17:52;;;;;;;5.00;4.23;;;29.80;99.90;;;;;;5067931;28;20427;-80
2021/06/28 11:20:28;;;;;;;9.20;5.00;;;29.90;99.90;;;;;;5064573;28;20435;-80
2021/06/28 11:23:01;;;;;;;4.10;3.80;;;30.10;99.90;;;;;;5067496;28;20423;-80
2021/06/28 11:25:55;;;;;;;5.30;4.00;;;30.30;99.90;;;;;;5065014;28;20954;-80
2021/06/28 11:28:36;;;;;;;4.10;3.80;;;30.60;99.90;;;;;;5059279;28;20473;-80
2021/06/28 11:31:08;;;;;;;4.90;4.10;;;30.90;99.90;;;;;;5059307;28;20423;-80
2021/06/28 11:33:41;;;;;;;4.37;4.07;;;30.90;99.90;;;;;;5062397;28;20549;-80
2021/06/28 11:36:33;;;;;;;3.97;3.60;;;31.00;99.90;;;;;;5060386;28;20456;-81
2021/06/28 11:39:28;;;;;;;3.13;2.90;;;31.00;99.90;;;;;;5066048;28;20951;-80
2021/06/28 11:42:16;;;;;;;3.50;3.40;;;31.20;99.90;;;;;;5064079;28;20430;-80
2021/06/28 11:44:50;;;;;;;3.80;3.60;;;31.00;99.90;;;;;;5068785;28;20441;-80
2021/06/28 11:47:16;;;;;;;4.23;4.03;;;31.00;98.50;;;;;;5066436;28;20505;-81
2021/06/28 11:49:41;;;;;;;3.53;3.40;;;31.00;99.90;;;;;;5069304;28;21058;-80
2021/06/28 11:52:15;;;;;;;3.50;3.37;;;31.30;98.00;;;;;;5068574;28;20214;-80
2021/06/28 11:54:41;;;;;;;5.73;3.40;;;31.50;98.90;;;;;;5069728;28;20169;-80
2021/06/28 11:57:07;;;;;;;4.63;3.57;;;31.50;97.20;;;;;;5069239;28;20437;-80
2021/06/28 11:59:40;;;;;;;3.47;3.33;;;31.60;97.50;;;;;;5070644;28;20176;-80
2021/06/28 12:02:06;;;;;;;3.10;3.00;;;31.80;97.50;;;;;;5070571;28;20821;-80
2021/06/28 12:04:36;;;;;;;3.47;3.30;;;32.10;98.20;;;;;;5068877;28;20750;-80
2021/06/28 12:07:04;;;;;;;3.00;2.90;;;32.30;97.10;;;;;;5070133;28;20453;-80
2021/06/28 12:09:45;;;;;;;3.40;2.60;;;32.40;97.10;;;;;;5071348;28;20418;-80
2021/06/28 12:12:15;;;;;;;3.37;3.17;;;32.60;96.70;;;;;;5069676;28;20817;-80
2021/06/28 12:14:48;;;;;;;3.43;2.80;;;32.40;94.30;;;;;;5072035;28;20406;-80
2021/06/28 12:17:21;;;;;;;3.30;3.20;;;32.50;97.10;;;;;;5071894;28;20497;-80
2021/06/28 12:19:58;;;;;;;3.10;3.00;;;32.50;96.70;;;;;;5087553;28;20545;-80
2021/06/28 12:22:26;;;;;;;3.30;3.10;;;32.70;95.60;;;;;;5070393;28;20525;-81
2021/06/28 12:24:58;;;;;;;3.37;3.20;;;33.00;95.80;;;;;;5065850;28;20434;-80
2021/06/28 12:27:30;;;;;;;3.83;3.17;;;33.10;95.10;;;;;;5067827;28;20759;-80
2021/06/28 12:29:56;;;;;;;4.80;3.90;;;33.20;93.70;;;;;;5069025;28;20938;-80
2021/06/28 12:32:32;;;;;;;3.60;3.40;;;33.10;93.10;;;;;;5069603;28;20425;-80
2021/06/28 12:34:59;;;;;;;3.90;3.60;;;32.70;94.00;;;;;;5071397;28;20503;-80
2021/06/28 12:37:33;;;;;;;3.90;3.70;;;32.70;95.20;;;;;;5073505;28;20911;-80
2021/06/28 12:40:15;;;;;;;2.97;2.87;;;32.90;93.20;;;;;;5073835;28;20419;-80
2021/06/28 12:42:54;;;;;;;3.70;3.50;;;33.10;95.10;;;;;;5068474;28;20473;-79
2021/06/28 12:45:23;;;;;;;3.63;3.43;;;33.10;92.60;;;;;;5073200;28;20521;-80
2021/06/28 12:47:52;;;;;;;3.97;3.77;;;33.00;93.20;;;;;;5074026;28;20484;-79
2021/06/28 12:50:21;;;;;;;4.00;3.70;;;32.50;92.40;;;;;;5067303;28;20430;-80
2021/06/28 12:52:48;;;;;;;3.40;3.30;;;32.00;93.30;;;;;;5068383;28;20473;-81
2021/06/28 12:55:32;;;;;;;3.90;3.60;;;31.70;93.40;;;;;;5083881;28;20540;-81